Nur fliegen ist schöner ....

Willkommen beim Flugservice Bautzen GmbH

Wir sind eine nach europäischen Richtlinien zugelassene Flugschule und lizenziertes Luftfahrtunternehmen. Bei uns können sie nicht nur Rundflüge über die Oberlausitz oder Sachsen buchen, sondern in unserer Flugschule selber das Fliegen erlernen. Erfahrene Fluglehrer stehen ihnen dabei zur Seite.

Wir bieten außerdem Businessflüghe sowie Transportleistungen auf dem Luftweg, ganz nach ihren Wünschen, an. Schauen sie sich in Ruhe bei uns um und wenn sie Fragen haben oder weitere Informationen benötigen, scheuen sie sich nicht Kontakt mit uns aufzunehmen.

Rundflüge können sie ganz leicht auch online in unserem Shop buchen.

Terminkalender

Letzter Monat März 2017 Nächster Monat
Mo Di Mi Do Fr Sa So
week 9 1 2 3 4 5
week 10 6 7 8 9 10 11 12
week 11 13 14 15 16 17 18 19
week 12 20 21 22 23 24 25 26
week 13 27 28 29 30 31

Flugwetterinfo

[Quelle: ADDS]
METAR
EDDC 271350Z 04003KT 330V120 CAVOK 16/M01 Q1024 NOSIG =
TAF
EDDC 271100Z 2712/2812 09005KT CAVOK BECMG 2716/2719 16005KT BECMG 2806/2809 25005KT =
SR / SS: 04:47 / 17:27 UTC (EDAB Flugplatz Bautzen 2017-03-27)

Webcam EDAB

Webcam EDAB
Flugservice Bautzen GmbH, Kornmarkt 34, 02625 Bautzen  Telefon: +49 (3591) 211105, Telefax: +49 (3591) 274512, E-Mail:  flugservice(at)fsbautzen.de